createdAt,value
2022-09-14T00:01:37.141Z,0.50
2022-09-14T00:04:20.285Z,0.50
2022-09-14T00:06:48.395Z,0.70
2022-09-14T00:09:22.208Z,0.50
2022-09-14T00:11:51.321Z,0.50
2022-09-14T00:14:19.861Z,0.50
2022-09-14T00:16:47.660Z,0.50
2022-09-14T00:19:25.618Z,0.50
2022-09-14T00:21:55.920Z,0.50
2022-09-14T00:24:27.297Z,0.50
2022-09-14T00:26:54.485Z,0.40
2022-09-14T00:29:23.694Z,0.50
2022-09-14T00:31:51.509Z,0.50
2022-09-14T00:34:19.735Z,0.50
2022-09-14T00:36:49.731Z,0.50
2022-09-14T00:39:19.112Z,0.50
2022-09-14T00:41:48.562Z,0.50
2022-09-14T00:44:15.707Z,0.60
2022-09-14T00:46:48.744Z,0.60
2022-09-14T00:49:40.740Z,0.60
2022-09-14T00:52:14.325Z,0.60
2022-09-14T00:55:05.381Z,0.50
2022-09-14T00:57:42.481Z,0.50
2022-09-14T01:00:12.081Z,0.50
2022-09-14T01:02:39.859Z,0.60
2022-09-14T01:05:09.289Z,0.52
2022-09-14T01:08:23.236Z,0.60
2022-09-14T01:11:15.172Z,0.50
2022-09-14T01:14:10.776Z,0.60
2022-09-14T01:17:14.684Z,0.50
2022-09-14T01:20:00.738Z,0.50
2022-09-14T01:23:06.742Z,0.50
2022-09-14T01:26:34.013Z,0.43
2022-09-14T01:29:16.774Z,0.57
2022-09-14T01:32:08.474Z,0.50
2022-09-14T01:35:01.288Z,0.50
2022-09-14T01:38:02.255Z,0.52
2022-09-14T01:40:40.214Z,0.50
2022-09-14T01:43:13.787Z,0.50
2022-09-14T01:45:53.264Z,0.50
2022-09-14T01:48:28.304Z,0.50
2022-09-14T01:50:58.698Z,0.50
2022-09-14T01:53:47.392Z,0.55
2022-09-14T01:56:21.384Z,0.50
2022-09-14T01:59:12.313Z,0.50
2022-09-14T02:02:06.153Z,0.50
2022-09-14T02:04:53.406Z,0.50
2022-09-14T02:07:20.868Z,0.50
2022-09-14T02:09:48.917Z,0.60
2022-09-14T02:12:16.717Z,0.60
2022-09-14T02:14:46.483Z,0.50
2022-09-14T02:17:14.124Z,0.50
2022-09-14T02:19:48.852Z,0.50
2022-09-14T02:22:16.220Z,0.40
2022-09-14T02:24:43.824Z,0.40
2022-09-14T02:27:11.147Z,0.50
2022-09-14T02:29:38.705Z,0.55
2022-09-14T02:32:29.590Z,0.50
2022-09-14T02:35:27.575Z,0.50
2022-09-14T02:38:30.017Z,0.52
2022-09-14T02:41:10.704Z,0.50
2022-09-14T02:43:56.029Z,0.50
2022-09-14T02:46:48.782Z,0.50
2022-09-14T02:49:44.324Z,0.50
2022-09-14T02:52:40.239Z,0.40
2022-09-14T02:55:13.284Z,0.40
2022-09-14T02:58:08.834Z,0.57
2022-09-14T03:00:43.750Z,0.50
2022-09-14T03:03:14.261Z,0.40
2022-09-14T03:05:42.320Z,0.60
2022-09-14T03:08:12.792Z,0.50
2022-09-14T03:10:43.371Z,0.43
2022-09-14T03:13:11.907Z,0.52
2022-09-14T03:15:39.319Z,0.50
2022-09-14T03:18:11.097Z,0.50
2022-09-14T03:20:40.991Z,0.52
2022-09-14T03:23:09.118Z,0.30
2022-09-14T03:25:43.234Z,0.50
2022-09-14T03:28:12.220Z,0.43
2022-09-14T03:30:39.580Z,0.50
2022-09-14T03:33:06.979Z,0.43
2022-09-14T03:35:34.912Z,0.50
2022-09-14T03:38:03.680Z,0.40
2022-09-14T03:40:31.141Z,0.45
2022-09-14T03:42:58.629Z,0.60
2022-09-14T03:45:25.665Z,0.40
2022-09-14T03:47:52.910Z,0.50
2022-09-14T03:50:21.205Z,0.50
2022-09-14T03:52:48.337Z,0.40
2022-09-14T03:55:15.645Z,0.50
2022-09-14T03:57:42.768Z,0.50
2022-09-14T04:00:11.442Z,0.50
2022-09-14T04:02:39.646Z,0.50
2022-09-14T04:05:07.612Z,0.50
2022-09-14T04:07:34.671Z,0.50
2022-09-14T04:10:02.469Z,0.52
2022-09-14T04:12:29.878Z,0.47
2022-09-14T04:14:56.749Z,0.50
2022-09-14T04:17:25.097Z,0.43
2022-09-14T04:19:52.468Z,0.50
2022-09-14T04:22:19.580Z,0.45
2022-09-14T04:24:47.741Z,0.40
2022-09-14T04:27:14.964Z,0.45
2022-09-14T04:29:41.993Z,0.50
2022-09-14T04:32:09.104Z,0.50
2022-09-14T04:34:36.272Z,0.50
2022-09-14T04:37:04.404Z,0.60
2022-09-14T04:39:31.308Z,0.50
2022-09-14T04:41:58.597Z,0.50
2022-09-14T04:44:25.656Z,0.50
2022-09-14T04:46:53.000Z,0.50
2022-09-14T04:49:21.562Z,0.50
2022-09-14T04:51:48.897Z,0.50
2022-09-14T04:54:17.870Z,0.50
2022-09-14T04:56:46.124Z,0.50
2022-09-14T04:59:15.184Z,0.50
2022-09-14T05:01:44.958Z,0.40
2022-09-14T05:04:12.804Z,0.50
2022-09-14T05:06:42.738Z,0.50
2022-09-14T05:09:17.121Z,0.50
2022-09-14T05:11:44.812Z,0.50
2022-09-14T05:14:13.783Z,0.50
2022-09-14T05:16:42.925Z,0.50
2022-09-14T05:19:14.745Z,0.50
2022-09-14T05:21:42.200Z,0.50
2022-09-14T05:24:15.948Z,0.50
2022-09-14T05:26:45.089Z,0.50
2022-09-14T05:29:17.978Z,0.68
2022-09-14T05:31:46.026Z,0.50
2022-09-14T05:34:13.911Z,0.50
2022-09-14T05:36:41.808Z,0.55
2022-09-14T05:39:10.428Z,0.50
2022-09-14T05:41:37.807Z,0.50
2022-09-14T05:44:05.748Z,0.40
2022-09-14T05:46:33.911Z,0.50
2022-09-14T05:49:00.960Z,0.50
2022-09-14T05:51:28.515Z,0.40
2022-09-14T05:53:58.129Z,0.50
2022-09-14T05:56:31.792Z,0.40
2022-09-14T05:59:00.215Z,0.63
2022-09-14T06:01:31.029Z,0.40
2022-09-14T06:04:02.115Z,0.40
2022-09-14T06:06:31.362Z,0.40
2022-09-14T06:08:59.153Z,0.50
2022-09-14T06:11:30.071Z,0.40
2022-09-14T06:13:57.887Z,0.40
2022-09-14T06:16:27.833Z,0.40
2022-09-14T06:18:57.385Z,0.43
2022-09-14T06:21:28.614Z,0.40
2022-09-14T06:23:56.456Z,0.47
2022-09-14T06:26:23.548Z,0.50
2022-09-14T06:28:50.661Z,0.45
2022-09-14T06:31:21.137Z,0.50
2022-09-14T06:33:50.188Z,0.40
2022-09-14T06:36:21.462Z,0.43
2022-09-14T06:38:50.052Z,0.40
2022-09-14T06:41:22.733Z,0.40
2022-09-14T06:43:50.997Z,0.50
2022-09-14T06:46:23.482Z,0.40
2022-09-14T06:49:01.719Z,0.50
2022-09-14T06:51:41.506Z,0.47
2022-09-14T06:54:10.705Z,0.40
2022-09-14T06:56:40.692Z,0.43
2022-09-14T06:59:13.080Z,0.40
2022-09-14T07:01:40.990Z,0.40
2022-09-14T07:04:08.350Z,0.40
2022-09-14T07:06:46.622Z,0.40
2022-09-14T07:09:15.139Z,0.40
2022-09-14T07:11:43.285Z,0.50
2022-09-14T07:14:11.636Z,0.40
2022-09-14T07:16:40.546Z,0.40
2022-09-14T07:19:12.205Z,0.40
2022-09-14T07:21:39.772Z,0.40
2022-09-14T07:24:07.421Z,0.40
2022-09-14T07:26:44.645Z,0.40
2022-09-14T07:29:15.298Z,0.40
2022-09-14T07:31:50.108Z,0.40
2022-09-14T07:34:18.263Z,0.40
2022-09-14T07:36:45.533Z,0.40
2022-09-14T07:39:17.878Z,0.50
2022-09-14T07:41:45.374Z,0.38
2022-09-14T07:44:16.990Z,0.40
2022-09-14T07:46:46.115Z,0.30
2022-09-14T07:49:14.227Z,0.40
2022-09-14T07:51:42.050Z,0.30
2022-09-14T07:54:13.433Z,0.40
2022-09-14T07:56:40.817Z,0.40
2022-09-14T07:59:33.367Z,0.40
2022-09-14T08:01:55.068Z,0.47
2022-09-14T08:04:22.261Z,0.40
2022-09-14T08:06:49.206Z,0.40
2022-09-14T08:09:16.113Z,0.40
2022-09-14T08:11:43.328Z,0.40
2022-09-14T08:14:12.416Z,0.40
2022-09-14T08:16:40.965Z,0.47
2022-09-14T08:19:15.297Z,0.40
2022-09-14T08:21:46.539Z,0.40
2022-09-14T08:24:19.193Z,0.40
2022-09-14T08:26:48.008Z,0.40
2022-09-14T08:29:18.052Z,0.45
2022-09-14T08:31:47.024Z,0.40
2022-09-14T08:34:16.029Z,0.40
2022-09-14T08:36:45.208Z,0.40
2022-09-14T08:39:14.589Z,0.40
2022-09-14T08:41:57.572Z,0.40
2022-09-14T08:44:45.630Z,0.40
2022-09-14T08:47:18.560Z,0.40
2022-09-14T08:50:18.970Z,0.40
2022-09-14T08:52:53.838Z,0.40
2022-09-14T08:55:45.264Z,0.40
2022-09-14T08:58:49.539Z,0.40
2022-09-14T09:01:31.494Z,0.40
2022-09-14T09:04:32.345Z,0.40
2022-09-14T09:07:38.356Z,0.60
2022-09-14T09:10:10.468Z,0.35
2022-09-14T09:12:45.517Z,0.40
2022-09-14T09:15:27.006Z,0.40
2022-09-14T09:18:07.105Z,0.30
2022-09-14T09:20:46.027Z,0.40
2022-09-14T09:23:22.189Z,0.50
2022-09-14T09:26:07.480Z,0.40
2022-09-14T09:28:35.363Z,0.40
2022-09-14T09:31:10.196Z,0.30
2022-09-14T09:33:58.758Z,0.30
2022-09-14T09:36:30.751Z,0.30
2022-09-14T09:39:02.968Z,0.30
2022-09-14T09:41:49.760Z,0.50
2022-09-14T09:44:16.917Z,0.40
2022-09-14T09:47:02.011Z,0.35
2022-09-14T09:49:36.425Z,0.30
2022-09-14T09:52:15.984Z,0.50
2022-09-14T09:54:51.506Z,0.30
2022-09-14T09:57:32.391Z,0.40
2022-09-14T10:00:19.515Z,0.40
2022-09-14T10:02:47.052Z,0.50
2022-09-14T10:05:14.286Z,0.40
2022-09-14T10:08:08.066Z,0.30
2022-09-14T10:10:38.573Z,0.30
2022-09-14T10:13:26.133Z,0.40
2022-09-14T10:15:54.416Z,0.40
2022-09-14T10:18:30.273Z,0.30
2022-09-14T10:21:00.528Z,0.60
2022-09-14T10:23:31.334Z,0.40
2022-09-14T10:26:13.663Z,0.35
2022-09-14T10:28:47.558Z,0.32
2022-09-14T10:31:20.450Z,0.40
2022-09-14T10:33:57.030Z,0.30
2022-09-14T10:36:31.203Z,0.40
2022-09-14T10:39:27.481Z,0.40
2022-09-14T10:42:36.849Z,0.47
2022-09-14T10:45:31.512Z,0.40
2022-09-14T10:48:13.684Z,0.50
2022-09-14T10:51:02.140Z,0.60
2022-09-14T10:54:13.663Z,0.40
2022-09-14T10:57:05.542Z,0.30
2022-09-14T10:59:43.313Z,0.40
2022-09-14T11:02:34.612Z,0.30
2022-09-14T11:05:22.128Z,0.30
2022-09-14T11:08:24.796Z,0.40
2022-09-14T11:11:09.331Z,0.50
2022-09-14T11:14:03.209Z,0.30
2022-09-14T11:16:47.730Z,0.32
2022-09-14T11:19:53.958Z,0.30
2022-09-14T11:23:06.358Z,0.30
2022-09-14T11:25:48.685Z,0.30
2022-09-14T11:28:29.160Z,0.30
2022-09-14T11:31:06.607Z,0.30
2022-09-14T11:33:41.522Z,0.30
2022-09-14T11:36:25.952Z,0.30
2022-09-14T11:39:21.177Z,0.30
2022-09-14T11:42:07.353Z,0.40
2022-09-14T11:44:44.817Z,0.30
2022-09-14T11:47:19.479Z,0.30
2022-09-14T11:50:03.448Z,0.50
2022-09-14T11:52:33.028Z,0.30
2022-09-14T11:55:01.873Z,0.32
2022-09-14T11:57:36.532Z,0.30
2022-09-14T12:00:42.463Z,0.30
2022-09-14T12:03:52.305Z,0.30
2022-09-14T12:06:31.532Z,0.30
2022-09-14T12:09:24.458Z,0.30
2022-09-14T12:11:58.515Z,0.30
2022-09-14T12:14:28.666Z,0.30
2022-09-14T12:17:39.351Z,0.30
2022-09-14T12:20:29.437Z,0.30
2022-09-14T12:23:27.865Z,0.30
2022-09-14T12:26:34.427Z,0.30
2022-09-14T12:29:34.536Z,0.30
2022-09-14T12:32:06.007Z,0.30
2022-09-14T12:34:34.371Z,0.30
2022-09-14T12:37:24.960Z,0.20
2022-09-14T12:40:29.479Z,0.30
2022-09-14T12:42:59.688Z,0.30
2022-09-14T12:46:00.283Z,0.30
2022-09-14T12:48:46.881Z,0.32
2022-09-14T12:51:36.168Z,0.30
2022-09-14T12:54:25.808Z,0.28
2022-09-14T12:57:15.930Z,0.32
2022-09-14T13:00:14.425Z,0.30
2022-09-14T13:03:08.695Z,0.40
2022-09-14T13:05:36.330Z,0.30
2022-09-14T13:08:11.696Z,0.28
2022-09-14T13:10:46.950Z,0.30
2022-09-14T13:13:30.738Z,0.30
2022-09-14T13:16:05.275Z,0.22
2022-09-14T13:18:37.583Z,0.20
2022-09-14T13:21:21.949Z,0.20
2022-09-14T13:23:49.336Z,0.30
2022-09-14T13:26:22.117Z,0.30
2022-09-14T13:28:56.453Z,0.20
2022-09-14T13:31:36.039Z,0.30
2022-09-14T13:34:04.731Z,0.28
2022-09-14T13:36:44.116Z,0.30
2022-09-14T13:39:31.754Z,0.30
2022-09-14T13:41:59.687Z,0.30
2022-09-14T13:44:42.344Z,0.40
2022-09-14T13:47:15.244Z,0.30
2022-09-14T13:49:45.347Z,0.30
2022-09-14T13:52:34.011Z,0.30
2022-09-14T13:55:26.556Z,0.30
2022-09-14T13:58:13.561Z,0.20
2022-09-14T14:00:55.568Z,0.20
2022-09-14T14:03:37.918Z,0.30
2022-09-14T14:06:27.191Z,0.20
2022-09-14T14:09:10.591Z,0.30
2022-09-14T14:11:52.330Z,0.30
2022-09-14T14:14:28.847Z,0.22
2022-09-14T14:17:13.277Z,0.30
2022-09-14T14:19:41.309Z,0.28
2022-09-14T14:22:14.201Z,0.20
2022-09-14T14:25:09.251Z,0.30
2022-09-14T14:27:33.669Z,0.30
2022-09-14T14:30:09.309Z,0.30
2022-09-14T14:32:36.220Z,0.20
2022-09-14T14:35:22.257Z,0.30
2022-09-14T14:37:50.702Z,0.30
2022-09-14T14:40:18.826Z,0.30
2022-09-14T14:42:46.915Z,0.30
2022-09-14T14:45:19.162Z,0.20
2022-09-14T14:47:47.816Z,0.22
2022-09-14T14:50:34.042Z,0.20
2022-09-14T14:53:02.531Z,0.30
2022-09-14T14:55:33.400Z,0.20
2022-09-14T14:58:08.056Z,0.20
2022-09-14T15:00:37.763Z,0.30
2022-09-14T15:03:05.518Z,0.30
2022-09-14T15:05:33.033Z,0.30
2022-09-14T15:08:00.657Z,0.40
2022-09-14T15:10:30.443Z,0.30
2022-09-14T15:12:57.945Z,0.30
2022-09-14T15:15:26.940Z,0.20
2022-09-14T15:17:54.438Z,0.30
2022-09-14T15:20:22.443Z,0.30
2022-09-14T15:22:49.816Z,0.30
2022-09-14T15:25:19.349Z,0.30
2022-09-14T15:27:48.174Z,0.30
2022-09-14T15:30:15.580Z,0.30
2022-09-14T15:32:42.999Z,0.30
2022-09-14T15:35:14.746Z,0.25
2022-09-14T15:37:42.137Z,0.30
2022-09-14T15:40:10.124Z,0.30
2022-09-14T15:42:37.294Z,0.30
2022-09-14T15:45:06.052Z,0.30
2022-09-14T15:47:36.450Z,0.30
2022-09-14T15:50:06.198Z,0.30
2022-09-14T15:52:39.108Z,0.30
2022-09-14T15:55:09.354Z,0.30
2022-09-14T15:57:37.505Z,0.30
2022-09-14T16:00:09.334Z,0.30
2022-09-14T16:02:44.007Z,0.30
2022-09-14T16:05:13.056Z,0.30
2022-09-14T16:07:40.048Z,0.30
2022-09-14T16:10:08.286Z,0.30
2022-09-14T16:12:35.259Z,0.35
2022-09-14T16:15:02.348Z,0.30
2022-09-14T16:17:29.353Z,0.30
2022-09-14T16:19:56.564Z,0.30
2022-09-14T16:22:25.403Z,0.30
2022-09-14T16:24:52.356Z,0.40
2022-09-14T16:27:19.409Z,0.40
2022-09-14T16:29:46.544Z,0.30
2022-09-14T16:32:13.512Z,0.40
2022-09-14T16:34:40.566Z,0.30
2022-09-14T16:37:07.878Z,0.30
2022-09-14T16:39:35.117Z,0.40
2022-09-14T16:42:02.439Z,0.40
2022-09-14T16:44:30.345Z,0.32
2022-09-14T16:46:58.652Z,0.30
2022-09-14T16:49:28.283Z,0.40
2022-09-14T16:51:56.546Z,0.40
2022-09-14T16:54:25.998Z,0.35
2022-09-14T16:56:58.046Z,0.55
2022-09-14T16:59:26.193Z,0.40
2022-09-14T17:01:55.234Z,0.60
2022-09-14T17:04:24.185Z,0.43
2022-09-14T17:06:52.351Z,0.30
2022-09-14T17:09:29.347Z,0.40
2022-09-14T17:11:58.094Z,0.50
2022-09-14T17:14:30.273Z,0.40
2022-09-14T17:16:58.105Z,0.40
2022-09-14T17:19:25.929Z,0.50
2022-09-14T17:21:53.716Z,0.40
2022-09-14T17:24:22.158Z,0.40
2022-09-14T17:26:50.068Z,0.40
2022-09-14T17:29:17.764Z,0.40
2022-09-14T17:31:45.792Z,0.38
2022-09-14T17:34:16.526Z,0.30
2022-09-14T17:36:44.725Z,0.30
2022-09-14T17:39:12.811Z,0.40
2022-09-14T17:41:42.768Z,0.40
2022-09-14T17:44:13.170Z,0.30
2022-09-14T17:46:49.541Z,0.38
2022-09-14T17:49:19.823Z,0.30
2022-09-14T17:51:46.919Z,0.30
2022-09-14T17:54:14.168Z,0.50
2022-09-14T17:56:41.309Z,0.40
2022-09-14T17:59:13.511Z,0.40
2022-09-14T18:01:41.077Z,0.30
2022-09-14T18:04:12.091Z,0.40
2022-09-14T18:06:43.349Z,0.30
2022-09-14T18:09:15.089Z,0.30
2022-09-14T18:11:43.398Z,0.50
2022-09-14T18:14:14.787Z,0.40
2022-09-14T18:16:43.829Z,0.30
2022-09-14T18:19:12.981Z,0.50
2022-09-14T18:21:40.737Z,0.40
2022-09-14T18:24:10.148Z,0.50
2022-09-14T18:26:39.060Z,0.35
2022-09-14T18:29:07.094Z,0.40
2022-09-14T18:31:34.513Z,0.40
2022-09-14T18:34:01.860Z,0.40
2022-09-14T18:36:30.462Z,0.40
2022-09-14T18:38:59.291Z,0.40
2022-09-14T18:41:32.496Z,0.47
2022-09-14T18:44:01.104Z,0.50
2022-09-14T18:46:29.939Z,0.60
2022-09-14T18:49:02.081Z,0.60
2022-09-14T18:51:31.245Z,0.40
2022-09-14T18:54:05.417Z,0.50
2022-09-14T18:56:34.726Z,0.40
2022-09-14T18:59:04.366Z,0.60
2022-09-14T19:01:35.031Z,0.40
2022-09-14T19:04:04.357Z,0.40
2022-09-14T19:06:33.152Z,0.40
2022-09-14T19:09:00.496Z,0.50
2022-09-14T19:11:31.153Z,0.40
2022-09-14T19:14:09.303Z,0.50
2022-09-14T19:16:41.208Z,0.50
2022-09-14T19:19:11.658Z,0.40
2022-09-14T19:21:38.799Z,0.40
2022-09-14T19:24:10.876Z,0.40
2022-09-14T19:26:59.436Z,0.40
2022-09-14T19:29:28.532Z,0.40
2022-09-14T19:31:56.675Z,0.30
2022-09-14T19:34:26.503Z,0.60
2022-09-14T19:36:54.732Z,0.30
2022-09-14T19:39:24.135Z,0.40
2022-09-14T19:41:51.507Z,0.32
2022-09-14T19:44:18.826Z,0.40
2022-09-14T19:46:46.189Z,0.38
2022-09-14T19:49:19.602Z,0.43
2022-09-14T19:51:47.852Z,0.40
2022-09-14T19:54:15.918Z,0.40
2022-09-14T19:56:44.263Z,0.40
2022-09-14T19:59:11.416Z,0.40
2022-09-14T20:01:40.503Z,0.30
2022-09-14T20:04:09.517Z,0.40
2022-09-14T20:06:40.365Z,0.40
2022-09-14T20:09:21.080Z,0.40
2022-09-14T20:11:51.629Z,0.40
2022-09-14T20:14:22.872Z,0.40
2022-09-14T20:16:56.670Z,0.50
2022-09-14T20:19:29.250Z,0.40
2022-09-14T20:21:56.549Z,0.35
2022-09-14T20:24:27.413Z,0.50
2022-09-14T20:26:59.526Z,0.50
2022-09-14T20:29:34.035Z,0.50
2022-09-14T20:32:03.284Z,0.50
2022-09-14T20:34:30.653Z,0.45
2022-09-14T20:37:00.372Z,0.40
2022-09-14T20:39:28.274Z,0.40
2022-09-14T20:41:55.406Z,0.40
2022-09-14T20:44:23.236Z,0.40
2022-09-14T20:46:51.594Z,0.40
2022-09-14T20:49:22.212Z,0.40
2022-09-14T20:51:49.933Z,0.40
2022-09-14T20:54:18.133Z,0.40
2022-09-14T20:56:48.686Z,0.40
2022-09-14T20:59:18.442Z,0.50
2022-09-14T21:01:49.384Z,0.40
2022-09-14T21:04:20.659Z,0.40
2022-09-14T21:06:54.391Z,0.50
2022-09-14T21:09:24.496Z,0.45
2022-09-14T21:11:52.630Z,0.50
2022-09-14T21:14:22.166Z,0.55
2022-09-14T21:16:53.061Z,0.40
2022-09-14T21:19:24.041Z,0.30
2022-09-14T21:21:51.904Z,0.50
2022-09-14T21:24:21.735Z,0.40
2022-09-14T21:26:49.086Z,0.40
2022-09-14T21:29:23.735Z,0.40
2022-09-14T21:31:52.196Z,0.30
2022-09-14T21:34:19.483Z,0.40
2022-09-14T21:36:50.852Z,0.40
2022-09-14T21:39:23.220Z,0.40
2022-09-14T21:41:57.524Z,0.40
2022-09-14T21:44:35.603Z,0.40
2022-09-14T21:47:03.973Z,0.32
2022-09-14T21:49:31.216Z,0.40
2022-09-14T21:51:58.599Z,0.40
2022-09-14T21:54:26.222Z,0.47
2022-09-14T21:56:54.220Z,0.40
2022-09-14T21:59:22.774Z,0.50
2022-09-14T22:01:50.160Z,0.50
2022-09-14T22:04:20.431Z,0.40
2022-09-14T22:06:47.958Z,0.45
2022-09-14T22:09:16.714Z,0.40
2022-09-14T22:11:44.279Z,0.40
2022-09-14T22:14:14.852Z,0.40
2022-09-14T22:16:43.146Z,0.50
2022-09-14T22:19:26.784Z,0.45
2022-09-14T22:21:54.929Z,0.50
2022-09-14T22:24:36.344Z,0.40
2022-09-14T22:27:09.545Z,0.47
2022-09-14T22:29:40.595Z,0.40
2022-09-14T22:32:11.142Z,0.40
2022-09-14T22:34:41.385Z,0.50
2022-09-14T22:37:09.302Z,0.40
2022-09-14T22:39:36.531Z,0.50
2022-09-14T22:42:04.091Z,0.40
2022-09-14T22:44:31.253Z,0.45
2022-09-14T22:46:58.240Z,0.40
2022-09-14T22:49:25.532Z,0.40
2022-09-14T22:51:52.824Z,0.40
2022-09-14T22:54:19.809Z,0.40
2022-09-14T22:56:46.771Z,0.40
2022-09-14T22:59:13.739Z,0.43
2022-09-14T23:01:42.191Z,0.50
2022-09-14T23:04:13.349Z,0.40
2022-09-14T23:06:45.838Z,0.50
2022-09-14T23:09:17.813Z,0.50
2022-09-14T23:11:45.560Z,0.50
2022-09-14T23:14:15.130Z,0.40
2022-09-14T23:16:45.119Z,0.40
2022-09-14T23:19:17.114Z,0.50
2022-09-14T23:21:44.947Z,0.47
2022-09-14T23:24:12.132Z,0.43
2022-09-14T23:26:39.789Z,0.50
2022-09-14T23:29:11.572Z,0.50
2022-09-14T23:31:38.504Z,0.40
2022-09-14T23:34:06.827Z,0.45
2022-09-14T23:36:34.585Z,0.47
2022-09-14T23:39:02.565Z,0.40
2022-09-14T23:41:30.106Z,0.40
2022-09-14T23:43:57.224Z,0.50
2022-09-14T23:46:24.853Z,0.50
2022-09-14T23:48:52.125Z,0.70
2022-09-14T23:51:19.345Z,0.40
2022-09-14T23:53:46.839Z,0.50
2022-09-14T23:56:14.709Z,0.43
2022-09-14T23:58:43.716Z,0.50
